Weather History for KIGQ - April, 2013

Change the Weather History Date:

Sunday, April 21, 2013

  Actual Average (KMDW) Record (KMDW)
Temperature  
Mean Temperature 40 °F 53 °F  
Max Temperature 52 °F 62 °F 86 °F (1985)
Min Temperature 29 °F 44 °F 28 °F (1943)
Degree Days  
Heating Degree Days 24 13  
Month to date heating degree days 348  
Since 1 July heating degree days 5671  
Cooling Degree Days 0 1  
Month to date cooling degree days 3  
Year to date cooling degree days 4  
Moisture  
Dew Point 25 °F    
Average Humidity 51    
Maximum Humidity 71    
Minimum Humidity 34    
Precipitation  
Precipitation 0.00 in 0.13 in 1.08 in (1973)
Month to date precipitation 2.52  
Year to date precipitation 9.24  
Sea Level Pressure  
Sea Level Pressure 30.44 in    
Wind  
Wind Speed 7 mph (SE)    
Max Wind Speed 15 mph    
Max Gust Speed 21 mph    
Visibility 10 miles    
Events      
T = Trace of Precipitation, MM = Missing Value Source: NWS Daily Summary

Daily Weather History Graph

Daily Weather History Graph

Search for Another Location

Airport or City:

Trip Planner

Search our weather history database for the weather conditions in past years. The results will help you decide how hot, cold, wet, or windy it might be!

Date:

Astronomy

Apr. 21, 2013 Rise Set
Actual Time 6:00 AM CDT 7:37 PM CDT
Civil Twilight 5:31 AM CDT 8:06 PM CDT
Nautical Twilight 4:56 AM CDT 8:42 PM CDT
Astronomical Twilight 4:18 AM CDT 9:20 PM CDT
Moon 3:19 PM CDT (4/21) 3:26 AM CDT (4/21)
Length of Visible Light 14h 35m
Length of Day
13h 36m
Waxing Gibbous, 80% of the Moon is Illuminated
Apr 21
Waxing Gibbous
Apr 25
Full
May 2
Last Quarter
May 9
New
May 17
First Quarter

Hourly Weather History & Observations

Time (CDT) Temp. Windchill Dew Point Humidity Pressure Visibility Wind Dir Wind Speed Gust Speed Precip Events Conditions
12:15 AM 32.5 °F 29.3 °F 21.2 °F 63% 30.44 in 10.0 mi ESE 3.5 mph - N/A   Clear
12:35 AM 32.4 °F 29.1 °F 21.2 °F 63% 30.44 in 10.0 mi ESE 3.5 mph - N/A   Clear
12:55 AM 32.0 °F 27.5 °F 21.7 °F 66% 30.44 in 10.0 mi ESE 4.6 mph - N/A   Clear
1:15 AM 31.6 °F 27.0 °F 21.9 °F 67% 30.44 in 10.0 mi ESE 4.6 mph - N/A   Clear
1:35 AM 31.6 °F 27.0 °F 21.4 °F 66% 30.44 in 10.0 mi ESE 4.6 mph - N/A   Clear
4:15 AM 29.8 °F - 21.2 °F 70% 30.48 in 10.0 mi Calm Calm - N/A   Clear
4:35 AM 30.2 °F - 21.2 °F 69% 30.48 in 10.0 mi Calm Calm - N/A   Clear
4:55 AM 30.2 °F 26.7 °F 20.5 °F 67% 30.49 in 10.0 mi SE 3.5 mph - N/A   Clear
5:15 AM 30.2 °F 26.7 °F 21.2 °F 69% 30.49 in 10.0 mi SE 3.5 mph - N/A   Clear
5:35 AM 30.0 °F 25.2 °F 21.6 °F 71% 30.49 in 10.0 mi SE 4.6 mph - N/A   Clear
5:55 AM 29.7 °F 24.7 °F 21.2 °F 71% 30.49 in 10.0 mi SE 4.6 mph - N/A   Clear
6:15 AM 30.2 °F 25.4 °F 21.2 °F 69% 30.50 in 10.0 mi SE 4.6 mph - N/A   Clear
6:35 AM 30.9 °F 26.2 °F 21.6 °F 68% 30.51 in 10.0 mi SE 4.6 mph - N/A   Clear
6:55 AM 31.8 °F 26.2 °F 22.1 °F 67% 30.52 in 10.0 mi SE 5.8 mph - N/A   Clear
7:15 AM 32.0 °F 26.4 °F 21.9 °F 66% 30.52 in 10.0 mi SE 5.8 mph - N/A   Clear
7:35 AM 33.3 °F 26.4 °F 21.7 °F 63% 30.52 in 10.0 mi SE 8.1 mph - N/A   Clear
7:55 AM 34.3 °F 27.0 °F 21.2 °F 59% 30.53 in 10.0 mi SE 9.2 mph - N/A   Clear
8:15 AM 35.2 °F 27.1 °F 20.5 °F 55% 30.52 in 10.0 mi SE 11.5 mph - N/A   Clear
8:35 AM 36.5 °F 28.7 °F 20.1 °F 52% 30.52 in 10.0 mi SE 11.5 mph - N/A   Clear
8:55 AM 38.3 °F 31.4 °F 19.6 °F 47% 30.52 in 10.0 mi SE 10.4 mph 17.3 mph N/A   Clear
9:15 AM 39.2 °F 31.6 °F 19.8 °F 46% 30.52 in 10.0 mi ESE 12.7 mph - N/A   Clear
9:35 AM 40.6 °F 33.8 °F 19.9 °F 44% 30.52 in 10.0 mi SE 11.5 mph - N/A   Clear
9:55 AM 41.9 °F 36.3 °F 21.9 °F 45% 30.53 in 10.0 mi ESE 9.2 mph - N/A   Clear
10:15 AM 43.0 °F 37.2 °F 19.6 °F 39% 30.53 in 10.0 mi ESE 10.4 mph - N/A   Clear
10:35 AM 43.9 °F 38.3 °F 20.7 °F 40% 30.53 in 10.0 mi SSE 10.4 mph - N/A   Clear
10:55 AM 44.4 °F 40.0 °F 21.7 °F 41% 30.52 in 10.0 mi SSE 8.1 mph - N/A   Clear
11:15 AM 45.0 °F 39.3 °F 22.5 °F 41% 30.52 in 10.0 mi SE 11.5 mph - N/A   Clear
11:35 AM 46.8 °F - 25.0 °F 43% 30.51 in 10.0 mi SE 13.8 mph - N/A   Clear
11:55 AM 46.8 °F - 25.3 °F 43% 30.50 in 10.0 mi South 10.4 mph - N/A   Clear
12:15 PM 47.8 °F - 25.0 °F 41% 30.49 in 10.0 mi SE 12.7 mph - N/A   Clear
12:35 PM 48.0 °F - 24.4 °F 40% 30.49 in 10.0 mi SSE 10.4 mph - N/A   Clear
12:55 PM 48.6 °F - 26.6 °F 42% 30.48 in 10.0 mi SE 10.4 mph 18.4 mph N/A   Clear
1:15 PM 49.3 °F - 25.5 °F 40% 30.46 in 10.0 mi SE 11.5 mph - N/A   Clear
1:35 PM 50.0 °F - 27.1 °F 41% 30.45 in 10.0 mi SSE 15.0 mph 19.6 mph N/A   Clear
1:55 PM 50.2 °F - 26.6 °F 40% 30.44 in 10.0 mi SE 13.8 mph 18.4 mph N/A   Clear
2:15 PM 51.1 °F - 27.9 °F 41% 30.43 in 10.0 mi SSE 15.0 mph 18.4 mph N/A   Clear
2:35 PM 51.8 °F - 29.1 °F 42% 30.42 in 10.0 mi SSE 13.8 mph - N/A   Clear
2:55 PM 52.2 °F - 28.9 °F 41% 30.41 in 10.0 mi SSE 13.8 mph 20.7 mph N/A   Clear
3:15 PM 52.0 °F - 26.2 °F 37% 30.40 in 10.0 mi SE 15.0 mph 19.6 mph N/A   Clear
3:35 PM 52.0 °F - 26.1 °F 37% 30.39 in 10.0 mi SE 10.4 mph 17.3 mph N/A   Clear
3:55 PM 52.7 °F - 26.2 °F 36% 30.38 in 10.0 mi ESE 15.0 mph 20.7 mph N/A   Clear
4:15 PM 52.3 °F - 26.1 °F 36% 30.38 in 10.0 mi SE 13.8 mph 18.4 mph N/A   Clear
4:35 PM 52.7 °F - 26.1 °F 36% 30.37 in 10.0 mi SE 15.0 mph 20.7 mph N/A   Clear
4:55 PM 52.0 °F - 24.8 °F 35% 30.37 in 10.0 mi SSE 9.2 mph 19.6 mph N/A   Clear
5:15 PM 52.2 °F - 25.0 °F 35% 30.37 in 10.0 mi SSE 13.8 mph 20.7 mph N/A   Clear
5:35 PM 51.8 °F - 24.4 °F 34% 30.36 in 10.0 mi SSE 13.8 mph 18.4 mph N/A   Clear
5:55 PM 51.4 °F - 25.7 °F 37% 30.36 in 10.0 mi SSE 12.7 mph 18.4 mph N/A   Clear
6:15 PM 51.1 °F - 25.9 °F 38% 30.36 in 10.0 mi SSE 10.4 mph - N/A   Clear
6:35 PM 50.5 °F - 27.0 °F 40% 30.36 in 10.0 mi SSE 13.8 mph - N/A   Clear
6:55 PM 49.8 °F - 26.8 °F 41% 30.36 in 10.0 mi SE 13.8 mph - N/A   Clear
7:15 PM 48.6 °F - 26.8 °F 43% 30.36 in 10.0 mi SSE 10.4 mph - N/A   Clear
7:35 PM 48.2 °F - 27.1 °F 44% 30.36 in 10.0 mi SSE 10.4 mph - N/A   Clear
7:55 PM 47.3 °F - 28.0 °F 47% 30.37 in 10.0 mi SSE 9.2 mph - N/A   Clear
8:15 PM 46.4 °F 42.9 °F 29.1 °F 51% 30.37 in 10.0 mi SSE 6.9 mph - N/A   Clear
8:35 PM 45.7 °F 42.0 °F 29.7 °F 54% 30.37 in 10.0 mi SSE 6.9 mph - N/A   Clear
8:55 PM 44.8 °F 42.4 °F 30.0 °F 56% 30.38 in 10.0 mi SE 4.6 mph - N/A   Clear
9:15 PM 44.6 °F 41.4 °F 29.5 °F 55% 30.37 in 10.0 mi SE 5.8 mph - N/A   Clear
9:35 PM 44.1 °F 40.8 °F 29.3 °F 56% 30.37 in 10.0 mi SE 5.8 mph - N/A   Clear
9:55 PM 43.9 °F 39.9 °F 29.3 °F 57% 30.37 in 10.0 mi SSE 6.9 mph - N/A   Clear
10:15 PM 43.3 °F 40.7 °F 29.3 °F 58% 30.36 in 10.0 mi SSE 4.6 mph - N/A   Clear
10:35 PM 43.2 °F 39.7 °F 28.8 °F 57% 30.36 in 10.0 mi SE 5.8 mph - N/A   Clear
10:55 PM 43.2 °F 39.7 °F 29.3 °F 58% 30.36 in 10.0 mi SE 5.8 mph - N/A   Clear
11:15 PM 42.8 °F 40.1 °F 29.3 °F 59% 30.36 in 10.0 mi SSE 4.6 mph - N/A   Clear
11:35 PM 42.8 °F 39.3 °F 30.0 °F 61% 30.36 in 10.0 mi SSE 5.8 mph - N/A   Clear
11:55 PM 43.0 °F 38.8 °F 30.0 °F 60% 30.34 in 10.0 mi SSE 6.9 mph - N/A   Clear